sensor_id;sensor_type;location;lat;lon;timestamp;temperature;humidity
68354;DHT22;55274;43.060;25.618;2023-05-07T00:01:53;11.50;99.90
68354;DHT22;55274;43.060;25.618;2023-05-07T00:04:19;11.50;99.90
68354;DHT22;55274;43.060;25.618;2023-05-07T00:06:46;11.50;99.90
68354;DHT22;55274;43.060;25.618;2023-05-07T00:09:11;11.50;99.90
68354;DHT22;55274;43.060;25.618;2023-05-07T00:11:38;11.50;99.90
68354;DHT22;55274;43.060;25.618;2023-05-07T00:14:03;11.50;99.90
68354;DHT22;55274;43.060;25.618;2023-05-07T00:16:29;11.50;99.90
68354;DHT22;55274;43.060;25.618;2023-05-07T00:18:55;11.50;99.90
68354;DHT22;55274;43.060;25.618;2023-05-07T00:21:21;11.40;99.90
68354;DHT22;55274;43.060;25.618;2023-05-07T00:23:47;11.30;99.90
68354;DHT22;55274;43.060;25.618;2023-05-07T00:26:13;11.30;99.90
68354;DHT22;55274;43.060;25.618;2023-05-07T00:28:38;11.30;99.90
68354;DHT22;55274;43.060;25.618;2023-05-07T00:31:04;11.30;99.90
68354;DHT22;55274;43.060;25.618;2023-05-07T00:33:30;11.20;99.90
68354;DHT22;55274;43.060;25.618;2023-05-07T00:35:56;11.20;99.90
68354;DHT22;55274;43.060;25.618;2023-05-07T00:38:22;11.20;99.90
68354;DHT22;55274;43.060;25.618;2023-05-07T00:40:47;11.30;99.90
68354;DHT22;55274;43.060;25.618;2023-05-07T00:43:13;11.30;99.90
68354;DHT22;55274;43.060;25.618;2023-05-07T00:45:39;11.20;99.90
68354;DHT22;55274;43.060;25.618;2023-05-07T00:48:05;11.20;99.90
68354;DHT22;55274;43.060;25.618;2023-05-07T00:50:31;11.20;99.90
68354;DHT22;55274;43.060;25.618;2023-05-07T00:52:58;11.20;99.90
68354;DHT22;55274;43.060;25.618;2023-05-07T00:55:25;11.30;99.90
68354;DHT22;55274;43.060;25.618;2023-05-07T00:57:51;11.30;99.90
68354;DHT22;55274;43.060;25.618;2023-05-07T01:00:17;11.30;99.90
68354;DHT22;55274;43.060;25.618;2023-05-07T01:02:43;11.20;99.90
68354;DHT22;55274;43.060;25.618;2023-05-07T01:05:13;11.20;99.90
68354;DHT22;55274;43.060;25.618;2023-05-07T01:07:40;11.20;99.90
68354;DHT22;55274;43.060;25.618;2023-05-07T01:10:08;11.20;99.90
68354;DHT22;55274;43.060;25.618;2023-05-07T01:12:36;11.20;99.90
68354;DHT22;55274;43.060;25.618;2023-05-07T01:15:02;11.20;99.90
68354;DHT22;55274;43.060;25.618;2023-05-07T01:17:29;11.30;99.90
68354;DHT22;55274;43.060;25.618;2023-05-07T01:19:55;11.30;99.90
68354;DHT22;55274;43.060;25.618;2023-05-07T01:22:35;11.40;99.90
68354;DHT22;55274;43.060;25.618;2023-05-07T01:25:05;11.40;99.90
68354;DHT22;55274;43.060;25.618;2023-05-07T01:27:31;11.30;99.90
68354;DHT22;55274;43.060;25.618;2023-05-07T01:29:59;11.30;99.90
68354;DHT22;55274;43.060;25.618;2023-05-07T01:32:47;11.30;99.90
68354;DHT22;55274;43.060;25.618;2023-05-07T01:35:18;11.30;99.90
68354;DHT22;55274;43.060;25.618;2023-05-07T01:37:46;11.30;99.90
68354;DHT22;55274;43.060;25.618;2023-05-07T01:40:13;11.30;99.90
68354;DHT22;55274;43.060;25.618;2023-05-07T01:42:40;11.20;99.90
68354;DHT22;55274;43.060;25.618;2023-05-07T01:45:07;11.20;99.90
68354;DHT22;55274;43.060;25.618;2023-05-07T01:47:33;11.30;99.90
68354;DHT22;55274;43.060;25.618;2023-05-07T01:50:00;11.30;99.90
68354;DHT22;55274;43.060;25.618;2023-05-07T01:52:27;11.30;99.90
68354;DHT22;55274;43.060;25.618;2023-05-07T01:54:53;11.30;99.90
68354;DHT22;55274;43.060;25.618;2023-05-07T01:57:19;11.30;99.90
68354;DHT22;55274;43.060;25.618;2023-05-07T01:59:44;11.40;99.90
68354;DHT22;55274;43.060;25.618;2023-05-07T02:02:10;11.30;99.90
68354;DHT22;55274;43.060;25.618;2023-05-07T02:04:36;11.30;99.90
68354;DHT22;55274;43.060;25.618;2023-05-07T02:07:02;11.20;99.90
68354;DHT22;55274;43.060;25.618;2023-05-07T02:09:27;11.20;99.90
68354;DHT22;55274;43.060;25.618;2023-05-07T02:11:53;11.20;99.90
68354;DHT22;55274;43.060;25.618;2023-05-07T02:14:19;11.30;99.90
68354;DHT22;55274;43.060;25.618;2023-05-07T02:16:46;11.30;99.90
68354;DHT22;55274;43.060;25.618;2023-05-07T02:19:11;11.30;99.90
68354;DHT22;55274;43.060;25.618;2023-05-07T02:21:37;11.20;99.90
68354;DHT22;55274;43.060;25.618;2023-05-07T02:24:03;11.00;99.90
68354;DHT22;55274;43.060;25.618;2023-05-07T02:26:29;10.90;99.90
68354;DHT22;55274;43.060;25.618;2023-05-07T02:28:54;10.90;99.90
68354;DHT22;55274;43.060;25.618;2023-05-07T02:31:20;10.80;99.90
68354;DHT22;55274;43.060;25.618;2023-05-07T02:33:47;10.70;99.90
68354;DHT22;55274;43.060;25.618;2023-05-07T02:36:13;10.70;99.90
68354;DHT22;55274;43.060;25.618;2023-05-07T02:38:39;10.70;99.90
68354;DHT22;55274;43.060;25.618;2023-05-07T02:41:04;10.70;99.90
68354;DHT22;55274;43.060;25.618;2023-05-07T02:43:30;10.60;99.90
68354;DHT22;55274;43.060;25.618;2023-05-07T02:46:07;10.60;99.90
68354;DHT22;55274;43.060;25.618;2023-05-07T02:48:33;10.70;99.90
68354;DHT22;55274;43.060;25.618;2023-05-07T02:50:59;10.60;99.90
68354;DHT22;55274;43.060;25.618;2023-05-07T02:53:25;10.60;99.90
68354;DHT22;55274;43.060;25.618;2023-05-07T02:55:59;10.60;99.90
68354;DHT22;55274;43.060;25.618;2023-05-07T02:58:25;10.60;99.90
68354;DHT22;55274;43.060;25.618;2023-05-07T03:00:51;10.60;99.90
68354;DHT22;55274;43.060;25.618;2023-05-07T03:03:17;10.50;99.90
68354;DHT22;55274;43.060;25.618;2023-05-07T03:05:43;10.50;99.90
68354;DHT22;55274;43.060;25.618;2023-05-07T03:08:09;10.50;99.90
68354;DHT22;55274;43.060;25.618;2023-05-07T03:10:36;10.50;99.90
68354;DHT22;55274;43.060;25.618;2023-05-07T03:13:02;10.50;99.90
68354;DHT22;55274;43.060;25.618;2023-05-07T03:15:28;10.50;99.90
68354;DHT22;55274;43.060;25.618;2023-05-07T03:17:54;10.40;99.90
68354;DHT22;55274;43.060;25.618;2023-05-07T03:20:20;10.40;99.90
68354;DHT22;55274;43.060;25.618;2023-05-07T03:22:45;10.40;99.90
68354;DHT22;55274;43.060;25.618;2023-05-07T03:25:11;10.40;99.90
68354;DHT22;55274;43.060;25.618;2023-05-07T03:27:37;10.40;99.90
68354;DHT22;55274;43.060;25.618;2023-05-07T03:30:04;10.40;99.90
68354;DHT22;55274;43.060;25.618;2023-05-07T03:32:29;10.40;99.90
68354;DHT22;55274;43.060;25.618;2023-05-07T03:34:55;10.40;99.90
68354;DHT22;55274;43.060;25.618;2023-05-07T03:37:21;10.30;99.90
68354;DHT22;55274;43.060;25.618;2023-05-07T03:39:47;10.40;99.90
68354;DHT22;55274;43.060;25.618;2023-05-07T03:42:13;10.40;99.90
68354;DHT22;55274;43.060;25.618;2023-05-07T03:44:39;10.50;99.90
68354;DHT22;55274;43.060;25.618;2023-05-07T03:47:04;10.60;99.90
68354;DHT22;55274;43.060;25.618;2023-05-07T03:49:30;10.60;99.90
68354;DHT22;55274;43.060;25.618;2023-05-07T03:51:56;10.50;99.90
68354;DHT22;55274;43.060;25.618;2023-05-07T03:54:22;10.60;99.90
68354;DHT22;55274;43.060;25.618;2023-05-07T03:56:48;10.50;99.90
68354;DHT22;55274;43.060;25.618;2023-05-07T03:59:13;10.40;99.90
68354;DHT22;55274;43.060;25.618;2023-05-07T04:01:39;10.50;99.90
68354;DHT22;55274;43.060;25.618;2023-05-07T04:04:05;10.50;99.90
68354;DHT22;55274;43.060;25.618;2023-05-07T04:06:31;10.50;99.90
68354;DHT22;55274;43.060;25.618;2023-05-07T04:08:57;10.50;99.90
68354;DHT22;55274;43.060;25.618;2023-05-07T04:11:23;10.50;99.90
68354;DHT22;55274;43.060;25.618;2023-05-07T04:13:49;10.60;99.90
68354;DHT22;55274;43.060;25.618;2023-05-07T04:16:15;10.60;99.90
68354;DHT22;55274;43.060;25.618;2023-05-07T04:18:41;10.70;99.90
68354;DHT22;55274;43.060;25.618;2023-05-07T04:21:17;10.80;99.90
68354;DHT22;55274;43.060;25.618;2023-05-07T04:23:43;10.90;99.90
68354;DHT22;55274;43.060;25.618;2023-05-07T04:26:09;11.00;99.90
68354;DHT22;55274;43.060;25.618;2023-05-07T04:28:35;11.10;99.90
68354;DHT22;55274;43.060;25.618;2023-05-07T04:31:01;11.10;99.90
68354;DHT22;55274;43.060;25.618;2023-05-07T04:33:27;11.20;99.90
68354;DHT22;55274;43.060;25.618;2023-05-07T04:35:53;11.30;99.90
68354;DHT22;55274;43.060;25.618;2023-05-07T04:38:18;11.30;99.90
68354;DHT22;55274;43.060;25.618;2023-05-07T04:40:44;11.50;99.90
68354;DHT22;55274;43.060;25.618;2023-05-07T04:43:10;11.60;99.90
68354;DHT22;55274;43.060;25.618;2023-05-07T04:45:36;11.60;99.90
68354;DHT22;55274;43.060;25.618;2023-05-07T04:48:02;11.80;99.90
68354;DHT22;55274;43.060;25.618;2023-05-07T04:50:28;11.80;99.90
68354;DHT22;55274;43.060;25.618;2023-05-07T04:52:54;11.80;99.90
68354;DHT22;55274;43.060;25.618;2023-05-07T04:55:20;12.00;99.90
68354;DHT22;55274;43.060;25.618;2023-05-07T04:57:45;12.00;99.90
68354;DHT22;55274;43.060;25.618;2023-05-07T05:00:11;12.10;99.90
68354;DHT22;55274;43.060;25.618;2023-05-07T05:02:40;12.20;99.90
68354;DHT22;55274;43.060;25.618;2023-05-07T05:05:06;12.40;99.90
68354;DHT22;55274;43.060;25.618;2023-05-07T05:07:33;12.50;99.90
68354;DHT22;55274;43.060;25.618;2023-05-07T05:09:59;12.90;99.90
68354;DHT22;55274;43.060;25.618;2023-05-07T05:12:24;13.10;99.90
68354;DHT22;55274;43.060;25.618;2023-05-07T05:14:50;13.50;99.90
68354;DHT22;55274;43.060;25.618;2023-05-07T05:17:16;13.90;99.90
68354;DHT22;55274;43.060;25.618;2023-05-07T05:19:42;14.40;99.90
68354;DHT22;55274;43.060;25.618;2023-05-07T05:22:08;14.80;99.90
68354;DHT22;55274;43.060;25.618;2023-05-07T05:24:33;15.50;99.90
68354;DHT22;55274;43.060;25.618;2023-05-07T05:26:59;16.10;99.90
68354;DHT22;55274;43.060;25.618;2023-05-07T05:29:26;16.50;99.90
68354;DHT22;55274;43.060;25.618;2023-05-07T05:31:52;16.90;99.90
68354;DHT22;55274;43.060;25.618;2023-05-07T05:34:18;17.70;99.90
68354;DHT22;55274;43.060;25.618;2023-05-07T05:36:45;17.90;95.80
68354;DHT22;55274;43.060;25.618;2023-05-07T05:39:11;18.10;96.50
68354;DHT22;55274;43.060;25.618;2023-05-07T05:41:37;18.90;90.70
68354;DHT22;55274;43.060;25.618;2023-05-07T05:44:02;19.30;86.90
68354;DHT22;55274;43.060;25.618;2023-05-07T05:46:28;19.70;84.50
68354;DHT22;55274;43.060;25.618;2023-05-07T05:48:54;19.70;84.30
68354;DHT22;55274;43.060;25.618;2023-05-07T05:51:21;19.90;82.40
68354;DHT22;55274;43.060;25.618;2023-05-07T05:53:46;20.00;81.60
68354;DHT22;55274;43.060;25.618;2023-05-07T05:56:12;20.10;81.40
68354;DHT22;55274;43.060;25.618;2023-05-07T05:58:38;20.40;78.80
68354;DHT22;55274;43.060;25.618;2023-05-07T06:01:04;20.30;78.90
68354;DHT22;55274;43.060;25.618;2023-05-07T06:03:31;20.60;78.20
68354;DHT22;55274;43.060;25.618;2023-05-07T06:05:58;21.10;78.00
68354;DHT22;55274;43.060;25.618;2023-05-07T06:08:23;21.00;76.30
68354;DHT22;55274;43.060;25.618;2023-05-07T06:10:49;21.40;75.10
68354;DHT22;55274;43.060;25.618;2023-05-07T06:13:15;21.60;72.90
68354;DHT22;55274;43.060;25.618;2023-05-07T06:15:41;21.50;73.60
68354;DHT22;55274;43.060;25.618;2023-05-07T06:18:07;21.70;74.10
68354;DHT22;55274;43.060;25.618;2023-05-07T06:20:32;21.90;72.50
68354;DHT22;55274;43.060;25.618;2023-05-07T06:22:58;22.00;70.50
68354;DHT22;55274;43.060;25.618;2023-05-07T06:25:24;22.20;70.00
68354;DHT22;55274;43.060;25.618;2023-05-07T06:27:49;21.90;70.30
68354;DHT22;55274;43.060;25.618;2023-05-07T06:30:15;22.20;68.60
68354;DHT22;55274;43.060;25.618;2023-05-07T06:32:41;22.20;68.10
68354;DHT22;55274;43.060;25.618;2023-05-07T06:35:07;22.10;68.50
68354;DHT22;55274;43.060;25.618;2023-05-07T06:37:33;22.40;67.70
68354;DHT22;55274;43.060;25.618;2023-05-07T06:39:59;22.50;66.30
68354;DHT22;55274;43.060;25.618;2023-05-07T06:42:24;22.60;66.40
68354;DHT22;55274;43.060;25.618;2023-05-07T06:44:50;23.10;64.80
68354;DHT22;55274;43.060;25.618;2023-05-07T06:47:16;23.30;62.40
68354;DHT22;55274;43.060;25.618;2023-05-07T06:49:42;23.30;60.60
68354;DHT22;55274;43.060;25.618;2023-05-07T06:52:07;23.40;58.70
68354;DHT22;55274;43.060;25.618;2023-05-07T06:54:33;23.20;58.50
68354;DHT22;55274;43.060;25.618;2023-05-07T06:56:59;23.20;59.80
68354;DHT22;55274;43.060;25.618;2023-05-07T06:59:25;23.30;58.70
68354;DHT22;55274;43.060;25.618;2023-05-07T07:01:50;23.30;58.50
68354;DHT22;55274;43.060;25.618;2023-05-07T07:04:16;23.40;55.60
68354;DHT22;55274;43.060;25.618;2023-05-07T07:06:42;23.20;57.10
68354;DHT22;55274;43.060;25.618;2023-05-07T07:09:08;23.40;56.00
68354;DHT22;55274;43.060;25.618;2023-05-07T07:11:34;23.30;55.00
68354;DHT22;55274;43.060;25.618;2023-05-07T07:13:59;23.50;55.80
68354;DHT22;55274;43.060;25.618;2023-05-07T07:16:26;23.50;55.20
68354;DHT22;55274;43.060;25.618;2023-05-07T07:18:51;23.60;54.40
68354;DHT22;55274;43.060;25.618;2023-05-07T07:21:17;23.70;55.20
68354;DHT22;55274;43.060;25.618;2023-05-07T07:23:43;23.80;53.30
68354;DHT22;55274;43.060;25.618;2023-05-07T07:26:08;24.00;53.00
68354;DHT22;55274;43.060;25.618;2023-05-07T07:28:34;24.30;52.40
68354;DHT22;55274;43.060;25.618;2023-05-07T07:31:00;24.00;51.40
68354;DHT22;55274;43.060;25.618;2023-05-07T07:33:26;24.00;50.50
68354;DHT22;55274;43.060;25.618;2023-05-07T07:35:52;24.30;50.30
68354;DHT22;55274;43.060;25.618;2023-05-07T07:38:17;24.60;48.80
68354;DHT22;55274;43.060;25.618;2023-05-07T07:40:43;24.90;48.30
68354;DHT22;55274;43.060;25.618;2023-05-07T07:43:09;25.10;49.00
68354;DHT22;55274;43.060;25.618;2023-05-07T07:45:35;25.20;47.00
68354;DHT22;55274;43.060;25.618;2023-05-07T07:48:01;25.40;47.30
68354;DHT22;55274;43.060;25.618;2023-05-07T07:50:27;25.60;46.60
68354;DHT22;55274;43.060;25.618;2023-05-07T07:52:52;25.60;48.00
68354;DHT22;55274;43.060;25.618;2023-05-07T07:55:20;25.80;45.70
68354;DHT22;55274;43.060;25.618;2023-05-07T07:57:49;25.90;45.50
68354;DHT22;55274;43.060;25.618;2023-05-07T08:00:15;25.80;44.70
68354;DHT22;55274;43.060;25.618;2023-05-07T08:02:42;25.50;45.30
68354;DHT22;55274;43.060;25.618;2023-05-07T08:05:08;25.60;44.70
68354;DHT22;55274;43.060;25.618;2023-05-07T08:07:34;25.80;45.00
68354;DHT22;55274;43.060;25.618;2023-05-07T08:09:59;25.50;44.80
68354;DHT22;55274;43.060;25.618;2023-05-07T08:12:25;25.60;43.90
68354;DHT22;55274;43.060;25.618;2023-05-07T08:14:51;25.80;43.70
68354;DHT22;55274;43.060;25.618;2023-05-07T08:17:17;25.90;43.60
68354;DHT22;55274;43.060;25.618;2023-05-07T08:19:43;25.80;43.50
68354;DHT22;55274;43.060;25.618;2023-05-07T08:22:09;26.00;41.30
68354;DHT22;55274;43.060;25.618;2023-05-07T08:24:36;25.80;35.70
68354;DHT22;55274;43.060;25.618;2023-05-07T08:27:02;25.60;37.10
68354;DHT22;55274;43.060;25.618;2023-05-07T08:29:27;25.30;35.70
68354;DHT22;55274;43.060;25.618;2023-05-07T08:31:53;25.10;36.90
68354;DHT22;55274;43.060;25.618;2023-05-07T08:34:21;24.80;37.10
68354;DHT22;55274;43.060;25.618;2023-05-07T08:36:47;24.80;37.50
68354;DHT22;55274;43.060;25.618;2023-05-07T08:39:15;24.80;36.40
68354;DHT22;55274;43.060;25.618;2023-05-07T08:41:44;24.90;37.70
68354;DHT22;55274;43.060;25.618;2023-05-07T08:44:14;25.00;35.20
68354;DHT22;55274;43.060;25.618;2023-05-07T08:46:42;25.60;35.80
68354;DHT22;55274;43.060;25.618;2023-05-07T08:49:12;25.70;35.10
68354;DHT22;55274;43.060;25.618;2023-05-07T08:51:38;25.00;36.80
68354;DHT22;55274;43.060;25.618;2023-05-07T08:54:04;25.00;37.10
68354;DHT22;55274;43.060;25.618;2023-05-07T08:56:30;25.40;37.00
68354;DHT22;55274;43.060;25.618;2023-05-07T08:58:56;25.00;36.40
68354;DHT22;55274;43.060;25.618;2023-05-07T09:01:24;25.30;36.80
68354;DHT22;55274;43.060;25.618;2023-05-07T09:03:50;25.60;35.80
68354;DHT22;55274;43.060;25.618;2023-05-07T09:06:16;25.10;35.90
68354;DHT22;55274;43.060;25.618;2023-05-07T09:08:51;25.40;35.80
68354;DHT22;55274;43.060;25.618;2023-05-07T09:11:22;25.80;35.60
68354;DHT22;55274;43.060;25.618;2023-05-07T09:13:49;25.80;35.10
68354;DHT22;55274;43.060;25.618;2023-05-07T09:16:20;25.30;36.30
68354;DHT22;55274;43.060;25.618;2023-05-07T09:18:48;25.40;36.00
68354;DHT22;55274;43.060;25.618;2023-05-07T09:21:18;25.30;36.90
68354;DHT22;55274;43.060;25.618;2023-05-07T09:23:44;25.90;35.60
68354;DHT22;55274;43.060;25.618;2023-05-07T09:26:09;25.40;35.90
68354;DHT22;55274;43.060;25.618;2023-05-07T09:28:41;25.20;36.70
68354;DHT22;55274;43.060;25.618;2023-05-07T09:31:08;25.80;36.80
68354;DHT22;55274;43.060;25.618;2023-05-07T09:33:34;26.00;37.70
68354;DHT22;55274;43.060;25.618;2023-05-07T09:36:07;26.00;36.30
68354;DHT22;55274;43.060;25.618;2023-05-07T09:38:34;26.20;35.40
68354;DHT22;55274;43.060;25.618;2023-05-07T09:41:04;26.60;34.90
68354;DHT22;55274;43.060;25.618;2023-05-07T09:43:34;26.10;37.40
68354;DHT22;55274;43.060;25.618;2023-05-07T09:46:13;26.00;39.30
68354;DHT22;55274;43.060;25.618;2023-05-07T09:48:41;26.30;36.20
68354;DHT22;55274;43.060;25.618;2023-05-07T09:51:29;26.70;36.10
68354;DHT22;55274;43.060;25.618;2023-05-07T09:53:58;27.00;36.00
68354;DHT22;55274;43.060;25.618;2023-05-07T09:56:26;27.00;37.00
68354;DHT22;55274;43.060;25.618;2023-05-07T09:58:54;27.10;36.40
68354;DHT22;55274;43.060;25.618;2023-05-07T10:01:21;26.90;36.40
68354;DHT22;55274;43.060;25.618;2023-05-07T10:03:49;26.30;37.10
68354;DHT22;55274;43.060;25.618;2023-05-07T10:06:17;26.50;36.30
68354;DHT22;55274;43.060;25.618;2023-05-07T10:08:43;26.80;36.60
68354;DHT22;55274;43.060;25.618;2023-05-07T10:11:10;26.70;37.10
68354;DHT22;55274;43.060;25.618;2023-05-07T10:13:36;26.20;38.50
68354;DHT22;55274;43.060;25.618;2023-05-07T10:16:04;26.40;38.00
68354;DHT22;55274;43.060;25.618;2023-05-07T10:18:31;27.10;38.10
68354;DHT22;55274;43.060;25.618;2023-05-07T10:21:07;27.50;36.10
68354;DHT22;55274;43.060;25.618;2023-05-07T10:23:33;27.50;36.30
68354;DHT22;55274;43.060;25.618;2023-05-07T10:26:03;27.10;37.40
68354;DHT22;55274;43.060;25.618;2023-05-07T10:28:37;27.00;37.50
68354;DHT22;55274;43.060;25.618;2023-05-07T10:31:50;26.50;38.70
68354;DHT22;55274;43.060;25.618;2023-05-07T10:34:24;26.70;37.60
68354;DHT22;55274;43.060;25.618;2023-05-07T10:36:52;26.70;37.70
68354;DHT22;55274;43.060;25.618;2023-05-07T10:39:19;27.20;39.10
68354;DHT22;55274;43.060;25.618;2023-05-07T10:41:46;27.50;37.50
68354;DHT22;55274;43.060;25.618;2023-05-07T10:44:11;27.60;37.30
68354;DHT22;55274;43.060;25.618;2023-05-07T10:47:12;27.30;36.80
68354;DHT22;55274;43.060;25.618;2023-05-07T10:52:21;27.30;36.80
68354;DHT22;55274;43.060;25.618;2023-05-07T10:57:40;27.30;37.00
68354;DHT22;55274;43.060;25.618;2023-05-07T11:05:24;28.10;37.20
68354;DHT22;55274;43.060;25.618;2023-05-07T11:07:58;28.20;36.20
68354;DHT22;55274;43.060;25.618;2023-05-07T11:10:56;27.80;36.20
68354;DHT22;55274;43.060;25.618;2023-05-07T11:16:25;27.50;36.00
68354;DHT22;55274;43.060;25.618;2023-05-07T11:18:56;27.20;38.40
68354;DHT22;55274;43.060;25.618;2023-05-07T11:21:38;27.30;37.40
68354;DHT22;55274;43.060;25.618;2023-05-07T11:24:05;27.50;36.10
68354;DHT22;55274;43.060;25.618;2023-05-07T11:26:42;27.80;37.30
68354;DHT22;55274;43.060;25.618;2023-05-07T11:29:19;27.40;37.50
68354;DHT22;55274;43.060;25.618;2023-05-07T11:31:54;27.60;36.50
68354;DHT22;55274;43.060;25.618;2023-05-07T11:34:22;27.50;37.00
68354;DHT22;55274;43.060;25.618;2023-05-07T11:36:48;27.60;37.00
68354;DHT22;55274;43.060;25.618;2023-05-07T11:39:44;27.70;36.50
68354;DHT22;55274;43.060;25.618;2023-05-07T11:42:29;28.00;37.50
68354;DHT22;55274;43.060;25.618;2023-05-07T11:44:55;28.20;36.90
68354;DHT22;55274;43.060;25.618;2023-05-07T11:47:21;27.90;37.70
68354;DHT22;55274;43.060;25.618;2023-05-07T11:49:52;28.00;37.00
68354;DHT22;55274;43.060;25.618;2023-05-07T11:52:19;28.20;36.30
68354;DHT22;55274;43.060;25.618;2023-05-07T11:54:52;28.30;36.50
68354;DHT22;55274;43.060;25.618;2023-05-07T11:57:18;28.40;37.40
68354;DHT22;55274;43.060;25.618;2023-05-07T11:59:44;28.30;36.40
68354;DHT22;55274;43.060;25.618;2023-05-07T12:02:10;28.50;36.90
68354;DHT22;55274;43.060;25.618;2023-05-07T12:04:38;28.10;35.80
68354;DHT22;55274;43.060;25.618;2023-05-07T12:07:03;28.00;37.20
68354;DHT22;55274;43.060;25.618;2023-05-07T12:09:32;27.90;35.80
68354;DHT22;55274;43.060;25.618;2023-05-07T12:12:05;27.80;35.90
68354;DHT22;55274;43.060;25.618;2023-05-07T12:14:31;27.80;36.10
68354;DHT22;55274;43.060;25.618;2023-05-07T12:16:59;27.80;36.00
68354;DHT22;55274;43.060;25.618;2023-05-07T12:19:31;27.80;36.40
68354;DHT22;55274;43.060;25.618;2023-05-07T12:21:57;27.50;36.10
68354;DHT22;55274;43.060;25.618;2023-05-07T12:24:23;27.30;36.90
68354;DHT22;55274;43.060;25.618;2023-05-07T12:26:49;26.90;36.30
68354;DHT22;55274;43.060;25.618;2023-05-07T12:29:15;26.60;36.50
68354;DHT22;55274;43.060;25.618;2023-05-07T12:31:43;26.70;37.20
68354;DHT22;55274;43.060;25.618;2023-05-07T12:34:12;26.70;36.40
68354;DHT22;55274;43.060;25.618;2023-05-07T12:36:39;26.70;37.70
68354;DHT22;55274;43.060;25.618;2023-05-07T12:39:06;27.20;38.20
68354;DHT22;55274;43.060;25.618;2023-05-07T12:41:52;27.00;37.20
68354;DHT22;55274;43.060;25.618;2023-05-07T12:44:18;27.20;37.40
68354;DHT22;55274;43.060;25.618;2023-05-07T12:46:46;27.40;36.70
68354;DHT22;55274;43.060;25.618;2023-05-07T12:49:12;27.20;35.90
68354;DHT22;55274;43.060;25.618;2023-05-07T12:51:38;27.30;36.00
68354;DHT22;55274;43.060;25.618;2023-05-07T12:54:03;27.20;37.00
68354;DHT22;55274;43.060;25.618;2023-05-07T12:56:36;27.30;37.20
68354;DHT22;55274;43.060;25.618;2023-05-07T12:59:02;27.40;36.60
68354;DHT22;55274;43.060;25.618;2023-05-07T13:01:31;27.60;37.20
68354;DHT22;55274;43.060;25.618;2023-05-07T13:04:03;27.50;36.40
68354;DHT22;55274;43.060;25.618;2023-05-07T13:06:30;27.30;36.80
68354;DHT22;55274;43.060;25.618;2023-05-07T13:08:56;27.40;35.90
68354;DHT22;55274;43.060;25.618;2023-05-07T13:11:22;27.30;35.60
68354;DHT22;55274;43.060;25.618;2023-05-07T13:13:48;27.50;36.00
68354;DHT22;55274;43.060;25.618;2023-05-07T13:16:14;27.20;36.00
68354;DHT22;55274;43.060;25.618;2023-05-07T13:18:40;27.30;36.10
68354;DHT22;55274;43.060;25.618;2023-05-07T13:21:06;27.00;37.10
68354;DHT22;55274;43.060;25.618;2023-05-07T13:23:32;26.60;37.10
68354;DHT22;55274;43.060;25.618;2023-05-07T13:25:58;26.60;37.60
68354;DHT22;55274;43.060;25.618;2023-05-07T13:28:24;26.60;37.80
68354;DHT22;55274;43.060;25.618;2023-05-07T13:30:50;26.60;36.60
68354;DHT22;55274;43.060;25.618;2023-05-07T13:33:17;26.70;37.20
68354;DHT22;55274;43.060;25.618;2023-05-07T13:35:43;26.70;36.90
68354;DHT22;55274;43.060;25.618;2023-05-07T13:38:09;26.60;36.20
68354;DHT22;55274;43.060;25.618;2023-05-07T13:40:35;26.50;36.30
68354;DHT22;55274;43.060;25.618;2023-05-07T13:43:01;26.50;36.70
68354;DHT22;55274;43.060;25.618;2023-05-07T13:45:30;26.60;36.00
68354;DHT22;55274;43.060;25.618;2023-05-07T13:47:56;26.60;36.20
68354;DHT22;55274;43.060;25.618;2023-05-07T13:50:22;26.70;36.40
68354;DHT22;55274;43.060;25.618;2023-05-07T13:52:48;26.70;36.70
68354;DHT22;55274;43.060;25.618;2023-05-07T13:55:20;26.70;35.70
68354;DHT22;55274;43.060;25.618;2023-05-07T13:57:47;26.70;36.10
68354;DHT22;55274;43.060;25.618;2023-05-07T14:00:13;26.60;36.20
68354;DHT22;55274;43.060;25.618;2023-05-07T14:02:40;26.50;35.60
68354;DHT22;55274;43.060;25.618;2023-05-07T14:05:06;26.40;36.30
68354;DHT22;55274;43.060;25.618;2023-05-07T14:07:32;26.40;36.20
68354;DHT22;55274;43.060;25.618;2023-05-07T14:09:58;26.10;36.40
68354;DHT22;55274;43.060;25.618;2023-05-07T14:12:24;25.90;36.40
68354;DHT22;55274;43.060;25.618;2023-05-07T14:14:53;25.80;37.70
68354;DHT22;55274;43.060;25.618;2023-05-07T14:17:19;25.90;36.10
68354;DHT22;55274;43.060;25.618;2023-05-07T14:19:45;25.90;36.90
68354;DHT22;55274;43.060;25.618;2023-05-07T14:22:13;26.00;37.50
68354;DHT22;55274;43.060;25.618;2023-05-07T14:24:40;25.90;36.50
68354;DHT22;55274;43.060;25.618;2023-05-07T14:27:06;25.90;36.10
68354;DHT22;55274;43.060;25.618;2023-05-07T14:29:32;25.90;36.80
68354;DHT22;55274;43.060;25.618;2023-05-07T14:31:58;25.90;37.30
68354;DHT22;55274;43.060;25.618;2023-05-07T14:34:24;25.90;37.30
68354;DHT22;55274;43.060;25.618;2023-05-07T14:36:49;25.70;37.20
68354;DHT22;55274;43.060;25.618;2023-05-07T14:39:15;25.60;37.10
68354;DHT22;55274;43.060;25.618;2023-05-07T14:41:41;25.50;37.60
68354;DHT22;55274;43.060;25.618;2023-05-07T14:44:07;25.60;37.50
68354;DHT22;55274;43.060;25.618;2023-05-07T14:46:32;25.70;37.80
68354;DHT22;55274;43.060;25.618;2023-05-07T14:48:58;25.50;37.70
68354;DHT22;55274;43.060;25.618;2023-05-07T14:51:24;25.40;38.00
68354;DHT22;55274;43.060;25.618;2023-05-07T14:53:51;25.40;37.50
68354;DHT22;55274;43.060;25.618;2023-05-07T14:56:17;25.30;38.00
68354;DHT22;55274;43.060;25.618;2023-05-07T14:58:43;25.10;38.80
68354;DHT22;55274;43.060;25.618;2023-05-07T15:01:09;25.20;38.20
68354;DHT22;55274;43.060;25.618;2023-05-07T15:03:35;25.10;38.40
68354;DHT22;55274;43.060;25.618;2023-05-07T15:06:02;25.10;38.70
68354;DHT22;55274;43.060;25.618;2023-05-07T15:08:28;25.10;39.00
68354;DHT22;55274;43.060;25.618;2023-05-07T15:10:54;25.00;39.30
68354;DHT22;55274;43.060;25.618;2023-05-07T15:13:20;25.00;39.20
68354;DHT22;55274;43.060;25.618;2023-05-07T15:15:46;24.90;39.00
68354;DHT22;55274;43.060;25.618;2023-05-07T15:18:13;25.00;39.30
68354;DHT22;55274;43.060;25.618;2023-05-07T15:20:39;25.00;38.60
68354;DHT22;55274;43.060;25.618;2023-05-07T15:23:06;25.00;39.10
68354;DHT22;55274;43.060;25.618;2023-05-07T15:25:35;24.90;39.30
68354;DHT22;55274;43.060;25.618;2023-05-07T15:28:02;24.70;39.30
68354;DHT22;55274;43.060;25.618;2023-05-07T15:30:27;24.50;39.70